Time;durP1;ratioP1;P1;durP2;ratioP2;P2;SDS_P1;SDS_P2;PMS_P1;PMS_P2;Temp;Humidity;BMP_temperature;BMP_pressure;BME280_temperature;BME280_humidity;BME280_pressure;Samples;Min_cycle;Max_cycle;Signal;HPM_P1;HPM_P2
2023/12/19 00:01:08;;;;;;;3.40;1.98;;;;;;;7.30;62.89;99220.66;6100631;19;20785;-71
2023/12/19 00:03:08;;;;;;;2.72;2.00;;;;;;;7.33;62.77;99217.22;6102994;19;20314;-71
2023/12/19 00:05:09;;;;;;;4.88;2.92;;;;;;;7.32;62.07;99212.84;6100771;19;20070;-71
2023/12/19 00:07:09;;;;;;;3.05;2.00;;;;;;;7.33;63.39;99214.44;6102552;19;20006;-71
2023/12/19 00:09:11;;;;;;;3.15;1.70;;;;;;;7.41;59.64;99218.28;6102612;19;20003;-72
2023/12/19 00:11:12;;;;;;;2.85;2.00;;;;;;;7.39;60.38;99221.38;6100908;19;20029;-71
2023/12/19 00:13:12;;;;;;;2.80;2.20;;;;;;;7.33;61.28;99218.00;6102081;19;20006;-71
2023/12/19 00:15:13;;;;;;;2.90;2.00;;;;;;;7.32;62.50;99210.91;6101942;19;20021;-71
2023/12/19 00:17:13;;;;;;;3.17;2.05;;;;;;;7.28;61.63;99211.91;6101982;19;20829;-71
2023/12/19 00:19:14;;;;;;;2.42;1.90;;;;;;;7.35;59.46;99211.34;6102113;19;20007;-71
2023/12/19 00:21:14;;;;;;;2.58;2.03;;;;;;;7.37;57.13;99198.88;6100002;19;20018;-71
2023/12/19 00:23:14;;;;;;;3.47;2.25;;;;;;;7.37;58.71;99195.31;6101533;19;20010;-71
2023/12/19 00:25:15;;;;;;;3.67;2.03;;;;;;;7.27;62.27;99193.78;6101314;19;20017;-71
2023/12/19 00:27:15;;;;;;;2.90;2.10;;;;;;;7.27;62.12;99193.78;6101773;19;20038;-71
2023/12/19 00:29:16;;;;;;;3.83;2.22;;;;;;;7.29;59.71;99189.56;6102423;19;20006;-71
2023/12/19 00:31:20;;;;;;;3.08;2.10;;;;;;;7.26;62.00;99186.66;6100133;19;20025;-71
2023/12/19 00:33:21;;;;;;;2.42;1.98;;;;;;;7.26;61.48;99194.94;6101927;19;20007;-71
2023/12/19 00:35:21;;;;;;;2.70;1.90;;;;;;;7.21;63.56;99181.41;6101796;19;20003;-71
2023/12/19 00:37:22;;;;;;;3.20;2.30;;;;;;;7.19;60.88;99189.97;6102502;19;20047;-71
2023/12/19 00:39:22;;;;;;;3.03;2.05;;;;;;;7.24;60.91;99192.50;6101606;19;20031;-71
2023/12/19 00:41:22;;;;;;;3.45;2.20;;;;;;;7.29;61.65;99195.06;6099147;19;20010;-71
2023/12/19 00:43:23;;;;;;;3.22;2.10;;;;;;;7.33;58.99;99196.00;6102092;19;20006;-71
2023/12/19 00:45:23;;;;;;;4.38;2.53;;;;;;;7.25;61.47;99185.06;6101545;19;20083;-72
2023/12/19 00:47:24;;;;;;;2.63;2.15;;;;;;;7.22;59.24;99186.56;6101439;19;20601;-72
2023/12/19 00:49:24;;;;;;;2.40;1.77;;;;;;;7.24;59.00;99202.72;6092226;19;20006;-71
2023/12/19 00:51:24;;;;;;;3.28;2.33;;;;;;;7.14;62.48;99203.94;6100875;19;20346;-71
2023/12/19 00:53:24;;;;;;;2.60;2.00;;;;;;;7.16;61.07;99193.41;6101111;19;20014;-71
2023/12/19 00:55:25;;;;;;;2.80;2.10;;;;;;;7.08;60.68;99193.47;6100926;19;20011;-71
2023/12/19 00:57:25;;;;;;;3.28;2.10;;;;;;;7.08;61.05;99202.53;6099707;19;20003;-71
2023/12/19 00:59:25;;;;;;;3.55;2.15;;;;;;;7.11;60.09;99199.09;6100628;19;20014;-71
2023/12/19 01:01:26;;;;;;;2.97;2.25;;;;;;;7.09;60.66;99204.16;6100782;19;20459;-71
2023/12/19 01:03:26;;;;;;;2.85;2.40;;;;;;;7.09;63.46;99209.66;6101880;19;20027;-71
2023/12/19 01:05:26;;;;;;;4.40;2.40;;;;;;;7.01;61.40;99203.06;6100861;19;20007;-71
2023/12/19 01:07:27;;;;;;;3.70;2.30;;;;;;;6.90;63.65;99210.13;6099279;19;20009;-71
2023/12/19 01:09:27;;;;;;;3.35;2.35;;;;;;;6.84;63.74;99227.16;6101251;19;20010;-71
2023/12/19 01:11:28;;;;;;;3.15;2.47;;;;;;;6.82;66.01;99232.22;6099833;19;20007;-71
2023/12/19 01:13:28;;;;;;;3.35;2.40;;;;;;;6.81;63.14;99227.84;6101423;19;20003;-71
2023/12/19 01:15:28;;;;;;;3.38;2.25;;;;;;;6.86;65.44;99233.13;6098248;19;20010;-71
2023/12/19 01:17:29;;;;;;;3.28;2.22;;;;;;;6.73;67.64;99241.31;6100565;19;20082;-72
2023/12/19 01:19:29;;;;;;;3.25;2.30;;;;;;;6.79;68.07;99241.13;6098518;19;20461;-72
2023/12/19 01:21:29;;;;;;;3.22;2.35;;;;;;;6.74;67.37;99237.44;6098199;19;20005;-71
2023/12/19 01:23:30;;;;;;;4.63;2.38;;;;;;;6.75;66.72;99230.78;6098318;19;20364;-71
2023/12/19 01:25:30;;;;;;;3.22;2.40;;;;;;;6.73;67.55;99246.03;6098779;19;20011;-71
2023/12/19 01:27:31;;;;;;;3.53;2.70;;;;;;;6.67;69.74;99242.66;6098182;19;20006;-71
2023/12/19 01:29:32;;;;;;;4.15;2.47;;;;;;;6.66;67.60;99245.75;6100151;19;20031;-71
2023/12/19 01:31:32;;;;;;;3.15;2.30;;;;;;;6.65;68.44;99242.19;6099773;19;20352;-71
2023/12/19 01:33:32;;;;;;;3.47;2.25;;;;;;;6.69;66.92;99239.56;6100355;19;20015;-71
2023/12/19 01:35:33;;;;;;;3.95;2.80;;;;;;;6.67;67.32;99241.84;6098291;19;20036;-71
2023/12/19 01:37:33;;;;;;;3.10;2.47;;;;;;;6.54;69.77;99240.13;6101101;19;20323;-71
2023/12/19 01:39:33;;;;;;;3.42;2.35;;;;;;;6.53;68.79;99238.53;6099471;19;20003;-71
2023/12/19 01:41:34;;;;;;;4.15;2.70;;;;;;;6.56;67.03;99243.38;6099170;19;20426;-71
2023/12/19 01:43:34;;;;;;;3.85;2.38;;;;;;;6.50;69.83;99252.94;6101219;19;20013;-71
2023/12/19 01:45:35;;;;;;;3.63;2.70;;;;;;;6.50;70.10;99248.25;6098716;19;20007;-71
2023/12/19 01:47:40;;;;;;;3.13;2.30;;;;;;;6.39;71.51;99245.09;6100022;19;20002;-71
2023/12/19 01:49:40;;;;;;;3.72;2.50;;;;;;;6.35;73.56;99233.13;6095081;19;20002;-71
2023/12/19 01:51:41;;;;;;;4.07;2.90;;;;;;;6.35;71.64;99224.88;6092270;19;20036;-71
2023/12/19 01:53:44;;;;;;;3.65;2.42;;;;;;;6.29;71.87;99229.00;6092701;19;20003;-71
2023/12/19 01:55:45;;;;;;;5.97;2.90;;;;;;;6.29;72.93;99220.75;6092223;19;20086;-71
2023/12/19 01:57:46;;;;;;;3.70;2.70;;;;;;;6.31;72.64;99223.16;6092563;19;20016;-71
2023/12/19 01:59:46;;;;;;;4.25;2.92;;;;;;;6.32;72.67;99236.56;6092658;19;20018;-71
2023/12/19 02:01:47;;;;;;;4.10;2.70;;;;;;;6.29;73.90;99229.00;6091255;19;20014;-71
2023/12/19 02:03:48;;;;;;;4.07;2.67;;;;;;;6.25;77.55;99235.47;6091683;19;20070;-71
2023/12/19 02:05:51;;;;;;;4.22;3.03;;;;;;;6.24;76.18;99225.63;6092053;19;20011;-71
2023/12/19 02:07:51;;;;;;;4.45;2.85;;;;;;;6.17;75.69;99220.63;6092956;19;20328;-71
2023/12/19 02:09:52;;;;;;;3.92;2.42;;;;;;;6.11;78.62;99213.69;6092323;19;20015;-71
2023/12/19 02:11:52;;;;;;;4.00;2.80;;;;;;;6.06;77.30;99211.16;6089090;19;20011;-71
2023/12/19 02:13:53;;;;;;;3.75;2.70;;;;;;;6.00;77.03;99210.53;6092621;19;20094;-71
2023/12/19 02:15:54;;;;;;;3.60;2.47;;;;;;;6.10;74.03;99221.13;6092425;19;20337;-71
2023/12/19 02:17:54;;;;;;;3.63;2.55;;;;;;;6.17;73.33;99215.94;6092167;19;20031;-71
2023/12/19 02:19:54;;;;;;;5.18;3.40;;;;;;;6.07;78.21;99212.75;6091747;19;20033;-71
2023/12/19 02:21:54;;;;;;;4.47;2.90;;;;;;;6.05;75.74;99209.53;6091239;19;20013;-71
2023/12/19 02:23:55;;;;;;;3.55;2.58;;;;;;;6.07;76.47;99201.78;6091728;19;20007;-71
2023/12/19 02:25:55;;;;;;;3.67;2.50;;;;;;;6.01;78.11;99208.59;6091563;19;20600;-71
2023/12/19 02:27:57;;;;;;;4.28;3.28;;;;;;;5.99;76.41;99199.88;6092591;19;20486;-71
2023/12/19 02:29:57;;;;;;;4.05;2.85;;;;;;;5.99;76.98;99191.63;6090927;19;20007;-71
2023/12/19 02:31:58;;;;;;;4.30;2.95;;;;;;;5.91;80.19;99198.78;6091257;19;20474;-71
2023/12/19 02:33:58;;;;;;;4.90;3.22;;;;;;;5.92;78.25;99192.13;6091342;19;20014;-71
2023/12/19 02:35:59;;;;;;;3.75;2.60;;;;;;;5.87;77.44;99195.84;6097100;19;20011;-72
2023/12/19 02:37:59;;;;;;;3.80;2.60;;;;;;;5.98;79.41;99192.78;6096584;19;20007;-71
2023/12/19 02:39:59;;;;;;;4.60;3.42;;;;;;;5.90;78.82;99191.63;6096537;19;20076;-71
2023/12/19 02:42:00;;;;;;;3.70;2.85;;;;;;;5.91;78.28;99198.78;6096396;19;20122;-71
2023/12/19 02:44:00;;;;;;;4.10;2.80;;;;;;;5.88;78.95;99186.47;6097550;19;20011;-71
2023/12/19 02:46:00;;;;;;;3.95;2.92;;;;;;;5.86;81.04;99198.91;6096527;19;20010;-71
2023/12/19 02:48:00;;;;;;;5.30;2.75;;;;;;;5.90;79.82;99199.88;6097249;19;20002;-71
2023/12/19 02:50:01;;;;;;;4.07;2.85;;;;;;;5.87;80.99;99193.09;6097542;19;19999;-71
2023/12/19 02:52:01;;;;;;;4.22;3.10;;;;;;;5.89;81.56;99184.53;6103934;19;20002;-71
2023/12/19 02:54:02;;;;;;;5.03;3.17;;;;;;;5.84;83.48;99188.25;6103521;19;20271;-71
2023/12/19 02:56:02;;;;;;;4.60;3.00;;;;;;;5.78;83.12;99189.56;6103469;19;20036;-71
2023/12/19 02:58:03;;;;;;;3.83;2.80;;;;;;;5.79;83.63;99184.88;6101943;19;20014;-71
2023/12/19 03:00:04;;;;;;;5.60;2.90;;;;;;;5.82;82.41;99187.00;6102776;19;19999;-71
2023/12/19 03:02:04;;;;;;;5.55;3.00;;;;;;;5.76;83.80;99178.13;6101818;19;20070;-71
2023/12/19 03:04:04;;;;;;;4.88;3.20;;;;;;;5.77;83.65;99176.97;6103465;19;20002;-71
2023/12/19 03:06:04;;;;;;;4.28;2.85;;;;;;;5.80;82.73;99170.03;6102604;19;19990;-71
2023/12/19 03:08:05;;;;;;;5.05;2.80;;;;;;;5.75;85.17;99173.75;6103185;19;19995;-71
2023/12/19 03:10:08;;;;;;;4.13;2.97;;;;;;;5.69;85.29;99168.78;6101918;19;20463;-71
2023/12/19 03:12:08;;;;;;;4.65;2.70;;;;;;;5.69;87.80;99164.09;6103144;19;20002;-71
2023/12/19 03:14:08;;;;;;;4.15;2.88;;;;;;;5.63;88.54;99171.72;6103266;19;20020;-71
2023/12/19 03:16:09;;;;;;;5.03;3.42;;;;;;;5.64;87.94;99170.59;6102892;19;20009;-71
2023/12/19 03:18:09;;;;;;;4.03;3.13;;;;;;;5.57;89.63;99159.28;6101991;19;20006;-71
2023/12/19 03:20:10;;;;;;;4.68;3.25;;;;;;;5.42;89.73;99168.06;6102514;19;20227;-71
2023/12/19 03:22:10;;;;;;;4.32;3.15;;;;;;;5.35;91.42;99176.78;6102976;19;20349;-71
2023/12/19 03:24:10;;;;;;;5.13;3.30;;;;;;;5.44;90.31;99178.69;6102562;19;20333;-71
2023/12/19 03:26:10;;;;;;;6.30;3.72;;;;;;;5.32;91.76;99179.38;6102570;19;20374;-71
2023/12/19 03:28:11;;;;;;;4.57;3.35;;;;;;;5.32;91.93;99187.63;6103239;19;19995;-71
2023/12/19 03:30:11;;;;;;;4.97;3.40;;;;;;;5.26;94.19;99173.25;6100323;19;20002;-71
2023/12/19 03:32:12;;;;;;;5.38;3.42;;;;;;;5.22;94.45;99172.31;6102449;19;20549;-71
2023/12/19 03:34:12;;;;;;;4.82;3.00;;;;;;;5.23;95.35;99173.13;6103113;19;20014;-71
2023/12/19 03:36:13;;;;;;;5.32;3.22;;;;;;;5.08;98.36;99179.91;6102579;19;20434;-71
2023/12/19 03:38:13;;;;;;;5.97;4.10;;;;;;;5.00;98.94;99183.47;6102699;19;20415;-71
2023/12/19 03:40:13;;;;;;;4.57;3.42;;;;;;;4.77;100.00;99180.88;6102128;19;20002;-71
2023/12/19 03:42:14;;;;;;;6.18;3.50;;;;;;;4.71;100.00;99173.94;6103014;19;19999;-71
2023/12/19 03:44:14;;;;;;;4.85;3.40;;;;;;;4.65;100.00;99177.19;6102419;19;20342;-71
2023/12/19 03:46:14;;;;;;;5.80;3.50;;;;;;;4.59;100.00;99172.97;6100178;19;20016;-71
2023/12/19 03:48:15;;;;;;;6.00;3.95;;;;;;;4.60;100.00;99166.38;6102766;19;20066;-71
2023/12/19 03:50:15;;;;;;;5.55;3.63;;;;;;;4.55;100.00;99150.91;6100206;19;20002;-71
2023/12/19 03:52:15;;;;;;;5.13;3.65;;;;;;;4.47;100.00;99158.00;6102715;19;19999;-71
2023/12/19 03:54:16;;;;;;;6.88;3.75;;;;;;;4.47;100.00;99151.72;6103857;19;20003;-71
2023/12/19 03:56:16;;;;;;;6.25;4.25;;;;;;;4.43;100.00;99151.53;6102510;19;20879;-71
2023/12/19 03:58:16;;;;;;;5.10;3.72;;;;;;;4.36;100.00;99148.44;6102801;19;20011;-71
2023/12/19 04:00:18;;;;;;;5.30;3.78;;;;;;;4.36;100.00;99156.66;6100378;19;20005;-71
2023/12/19 04:02:18;;;;;;;5.32;4.28;;;;;;;4.47;100.00;99148.97;6102801;19;20562;-71
2023/12/19 04:04:19;;;;;;;7.63;3.92;;;;;;;4.51;100.00;99138.97;6102775;19;19998;-71
2023/12/19 04:06:19;;;;;;;5.03;3.63;;;;;;;4.53;100.00;99123.00;6102665;19;20450;-71
2023/12/19 04:08:19;;;;;;;5.57;3.78;;;;;;;4.62;100.00;99117.50;6102387;19;20033;-71
2023/12/19 04:10:19;;;;;;;5.25;3.67;;;;;;;4.63;100.00;99099.94;6099959;19;19998;-71
2023/12/19 04:12:20;;;;;;;6.03;3.63;;;;;;;4.65;100.00;99114.94;6101952;19;20002;-71
2023/12/19 04:14:20;;;;;;;6.05;3.40;;;;;;;4.70;100.00;99108.47;6103157;19;23084;-71
2023/12/19 04:16:21;;;;;;;5.03;3.10;;;;;;;4.65;100.00;99079.31;6101041;19;20021;-71
2023/12/19 04:18:21;;;;;;;6.30;3.63;;;;;;;4.65;100.00;99078.50;6101573;19;20015;-71
2023/12/19 04:20:21;;;;;;;5.30;3.83;;;;;;;4.63;100.00;99075.28;6101336;19;20042;-71
2023/12/19 04:22:22;;;;;;;6.35;4.07;;;;;;;4.56;100.00;99075.78;6102703;19;20011;-71
2023/12/19 04:24:22;;;;;;;5.25;3.47;;;;;;;4.61;100.00;99089.31;6101690;19;20006;-71
2023/12/19 04:26:23;;;;;;;4.07;2.97;;;;;;;4.65;100.00;99104.00;6101256;19;20012;-71
2023/12/19 04:28:23;;;;;;;5.32;3.63;;;;;;;4.67;100.00;99106.41;6102083;19;20006;-71
2023/12/19 04:30:23;;;;;;;5.70;3.83;;;;;;;4.65;100.00;99105.91;6098880;19;20007;-71
2023/12/19 04:32:24;;;;;;;5.68;3.50;;;;;;;4.65;100.00;99111.41;6101503;19;20321;-71
2023/12/19 04:34:24;;;;;;;5.57;3.53;;;;;;;4.65;100.00;99125.09;6102019;19;21431;-71
2023/12/19 04:36:25;;;;;;;4.75;3.22;;;;;;;4.62;100.00;99125.75;6099647;19;20014;-71
2023/12/19 04:38:25;;;;;;;10.23;3.33;;;;;;;4.63;100.00;99113.63;6101039;19;19995;-71
2023/12/19 04:40:25;;;;;;;5.13;3.40;;;;;;;4.65;100.00;99097.69;6099592;19;20014;-71
2023/12/19 04:42:26;;;;;;;5.72;3.50;;;;;;;4.59;100.00;99099.00;6101849;19;20074;-71
2023/12/19 04:44:26;;;;;;;6.10;3.53;;;;;;;4.57;100.00;99091.09;6100497;19;20387;-71
2023/12/19 04:46:26;;;;;;;5.22;3.42;;;;;;;4.55;100.00;99079.66;6101023;19;20025;-71
2023/12/19 04:48:27;;;;;;;5.20;3.13;;;;;;;4.54;100.00;99071.72;6101638;19;20023;-71
2023/12/19 04:50:27;;;;;;;5.57;3.92;;;;;;;4.51;100.00;99067.72;6100424;19;20019;-71
2023/12/19 04:52:27;;;;;;;6.53;3.72;;;;;;;4.53;100.00;99081.09;6101438;19;20007;-71
2023/12/19 04:54:28;;;;;;;5.40;3.50;;;;;;;4.48;100.00;99088.34;6100231;19;20010;-71
2023/12/19 04:56:28;;;;;;;5.72;3.47;;;;;;;4.63;100.00;99084.28;6100163;19;20006;-71
2023/12/19 04:58:28;;;;;;;4.97;3.40;;;;;;;4.61;100.00;99089.31;6096718;19;20033;-71
2023/12/19 05:00:29;;;;;;;5.72;4.18;;;;;;;4.62;100.00;99101.88;6098773;19;20010;-71
2023/12/19 05:02:29;;;;;;;7.45;3.50;;;;;;;4.63;100.00;99105.41;6100234;19;20006;-71
2023/12/19 05:04:29;;;;;;;6.30;3.67;;;;;;;4.65;100.00;99108.66;6099804;19;20013;-71
2023/12/19 05:06:30;;;;;;;5.90;3.83;;;;;;;4.65;100.00;99112.22;6099141;19;20267;-71
2023/12/19 05:08:30;;;;;;;4.45;3.45;;;;;;;4.66;100.00;99110.28;6100786;19;19999;-71
2023/12/19 05:10:31;;;;;;;6.80;4.35;;;;;;;4.63;100.00;99100.75;6097633;19;20814;-71
2023/12/19 05:12:31;;;;;;;8.25;4.10;;;;;;;4.65;100.00;99103.19;6097664;19;20530;-71
2023/12/19 05:14:31;;;;;;;6.47;4.30;;;;;;;4.61;100.00;99108.50;6099926;19;20010;-71
2023/12/19 05:16:32;;;;;;;6.03;4.00;;;;;;;4.62;100.00;99103.81;6100344;19;20003;-71
2023/12/19 05:18:32;;;;;;;9.60;6.32;;;;;;;4.61;100.00;99107.69;6100058;19;20467;-71
2023/12/19 05:20:32;;;;;;;5.20;4.18;;;;;;;4.54;100.00;99101.88;6098793;19;20006;-71
2023/12/19 05:22:33;;;;;;;7.47;4.78;;;;;;;4.51;100.00;99109.63;6099059;19;20038;-71
2023/12/19 05:24:34;;;;;;;5.63;4.07;;;;;;;4.43;100.00;99115.91;6099735;19;20010;-71
2023/12/19 05:26:34;;;;;;;5.50;3.78;;;;;;;4.40;100.00;99111.09;6099795;19;20711;-71
2023/12/19 05:28:36;;;;;;;6.07;4.18;;;;;;;4.41;100.00;99112.69;6099888;19;20003;-71
2023/12/19 05:30:36;;;;;;;5.13;4.03;;;;;;;4.43;100.00;99123.31;6098742;19;20284;-71
2023/12/19 05:32:38;;;;;;;5.70;3.70;;;;;;;4.39;100.00;99106.72;6099313;19;20029;-71
2023/12/19 05:34:38;;;;;;;6.88;4.57;;;;;;;4.42;100.00;99097.06;6100250;19;20013;-71
2023/12/19 05:36:45;;;;;;;6.05;4.70;;;;;;;4.29;100.00;99084.31;6100491;19;20011;-71
2023/12/19 05:38:46;;;;;;;8.43;4.65;;;;;;;4.26;100.00;99068.53;6097921;19;20443;-71
2023/12/19 05:40:47;;;;;;;12.05;4.63;;;;;;;4.25;100.00;99078.69;6098855;19;20015;-71
2023/12/19 05:42:47;;;;;;;6.82;4.40;;;;;;;4.18;100.00;99075.59;6099528;19;20658;-71
2023/12/19 05:44:47;;;;;;;8.45;4.38;;;;;;;4.24;100.00;99066.13;6099399;19;20797;-71
2023/12/19 05:46:48;;;;;;;7.40;4.80;;;;;;;4.20;100.00;99079.63;6099560;19;20530;-71
2023/12/19 05:48:48;;;;;;;7.45;4.45;;;;;;;4.21;100.00;99081.25;6096388;19;20003;-71
2023/12/19 05:50:49;;;;;;;6.38;3.95;;;;;;;4.27;100.00;99098.34;6088276;19;20626;-71
2023/12/19 05:52:49;;;;;;;6.45;4.13;;;;;;;4.28;100.00;99085.44;6095875;19;20006;-71
2023/12/19 05:54:49;;;;;;;7.03;4.30;;;;;;;4.30;100.00;99081.25;6099066;19;20053;-71
2023/12/19 05:56:50;;;;;;;8.93;4.40;;;;;;;4.23;100.00;99091.91;6098686;19;20013;-71
2023/12/19 05:58:50;;;;;;;5.82;3.83;;;;;;;4.22;100.00;99091.09;6097956;19;20317;-71
2023/12/19 06:00:51;;;;;;;5.50;4.15;;;;;;;4.25;100.00;99095.13;6093267;19;20011;-71
2023/12/19 06:02:51;;;;;;;5.82;3.92;;;;;;;4.30;100.00;99091.41;6094758;19;19999;-71
2023/12/19 06:04:51;;;;;;;6.45;4.10;;;;;;;4.38;100.00;99085.13;6093528;19;20109;-71
2023/12/19 06:06:51;;;;;;;8.50;4.13;;;;;;;4.34;100.00;99086.91;6097359;19;20009;-71
2023/12/19 06:08:52;;;;;;;5.30;3.80;;;;;;;4.31;100.00;99088.34;6097232;19;20006;-71
2023/12/19 06:10:52;;;;;;;7.72;4.18;;;;;;;4.26;100.00;99085.78;6103380;19;20030;-71
2023/12/19 06:12:53;;;;;;;5.22;3.63;;;;;;;4.26;100.00;99087.69;6105288;19;20010;-71
2023/12/19 06:14:53;;;;;;;5.70;4.13;;;;;;;4.38;100.00;99091.41;6105378;19;20017;-71
2023/12/19 06:16:53;;;;;;;5.95;3.67;;;;;;;4.36;100.00;99090.91;6105632;19;20006;-71
2023/12/19 06:18:54;;;;;;;5.55;4.28;;;;;;;4.39;100.00;99101.25;6105470;19;20013;-71
2023/12/19 06:20:54;;;;;;;5.47;3.90;;;;;;;4.46;100.00;99106.22;6104398;19;20011;-71
2023/12/19 06:22:54;;;;;;;9.35;5.20;;;;;;;4.45;100.00;99105.41;6106953;19;20475;-71
2023/12/19 06:24:54;;;;;;;6.95;4.68;;;;;;;4.48;100.00;99099.31;6103019;19;20017;-71
2023/12/19 06:26:55;;;;;;;6.85;4.38;;;;;;;4.60;100.00;99100.59;6104476;19;20344;-71
2023/12/19 06:28:55;;;;;;;4.20;3.30;;;;;;;4.58;100.00;99100.13;6105684;19;20398;-71
2023/12/19 06:30:56;;;;;;;5.95;3.97;;;;;;;4.61;100.00;99096.72;6102909;19;20090;-71
2023/12/19 06:32:56;;;;;;;5.75;3.70;;;;;;;4.58;100.00;99092.69;6104249;19;20058;-71
2023/12/19 06:34:57;;;;;;;7.10;4.85;;;;;;;4.58;100.00;99091.91;6104891;19;20102;-71
2023/12/19 06:36:57;;;;;;;6.53;3.90;;;;;;;4.59;100.00;99088.03;6105025;19;20365;-71
2023/12/19 06:38:58;;;;;;;8.18;3.97;;;;;;;4.51;100.00;99089.63;6104543;19;20010;-71
2023/12/19 06:40:58;;;;;;;4.95;3.50;;;;;;;4.57;100.00;99085.63;6103930;19;20530;-71
2023/12/19 06:43:01;;;;;;;6.75;3.95;;;;;;;4.53;100.00;99081.09;6104533;19;20011;-71
2023/12/19 06:45:02;;;;;;;6.80;3.75;;;;;;;4.54;100.00;99078.03;6103555;19;20011;-71
2023/12/19 06:47:03;;;;;;;6.28;3.95;;;;;;;4.51;100.00;99079.47;6104398;19;20003;-71
2023/12/19 06:49:04;;;;;;;8.98;4.47;;;;;;;4.50;100.00;99080.63;6103162;19;20070;-71
2023/12/19 06:51:04;;;;;;;11.13;5.50;;;;;;;4.47;100.00;99069.50;6097416;19;20006;-71
2023/12/19 06:53:04;;;;;;;7.60;4.40;;;;;;;4.44;100.00;99059.97;6098649;19;20038;-71
2023/12/19 06:55:05;;;;;;;6.72;3.83;;;;;;;4.44;100.00;99050.94;6096821;19;20336;-71
2023/12/19 06:57:05;;;;;;;8.90;4.97;;;;;;;4.41;100.00;99057.09;6098201;19;20011;-71
2023/12/19 06:59:06;;;;;;;7.20;4.65;;;;;;;4.38;100.00;99063.19;6097093;19;20007;-71
2023/12/19 07:01:06;;;;;;;7.68;4.85;;;;;;;4.33;100.00;99055.16;6096007;19;20355;-71
2023/12/19 07:03:07;;;;;;;9.82;5.32;;;;;;;4.34;100.00;99049.34;6098379;19;20003;-71
2023/12/19 07:05:07;;;;;;;9.02;4.78;;;;;;;4.35;100.00;99052.91;6096295;19;20009;-71
2023/12/19 07:07:08;;;;;;;9.50;4.80;;;;;;;4.39;100.00;99045.66;6097147;19;20447;-71
2023/12/19 07:09:09;;;;;;;6.43;4.07;;;;;;;4.38;100.00;99035.78;6097431;19;20006;-71
2023/12/19 07:11:09;;;;;;;7.28;3.53;;;;;;;4.42;100.00;99047.75;6096566;19;20007;-71
2023/12/19 07:13:09;;;;;;;9.27;4.60;;;;;;;4.46;100.00;99052.22;6097094;19;20035;-71
2023/12/19 07:15:10;;;;;;;5.32;3.63;;;;;;;4.47;100.00;99042.91;6097240;19;20030;-71
2023/12/19 07:17:10;;;;;;;4.60;4.03;;;;;;;4.48;100.00;99038.22;6097957;19;20009;-72
2023/12/19 07:19:10;;;;;;;5.40;3.50;;;;;;;4.52;100.00;99041.91;6096946;19;20002;-72
2023/12/19 07:21:18;;;;;;;6.50;3.67;;;;;;;4.50;100.00;99025.81;6093543;19;20007;-71
2023/12/19 07:23:18;;;;;;;5.28;3.03;;;;;;;4.52;100.00;99028.22;6095712;19;20511;-71
2023/12/19 07:25:20;;;;;;;4.85;3.72;;;;;;;4.55;100.00;99027.59;6096643;19;20552;-71
2023/12/19 07:27:20;;;;;;;6.00;4.15;;;;;;;4.55;100.00;99013.06;6097253;19;20007;-71
2023/12/19 07:29:20;;;;;;;6.07;4.03;;;;;;;4.54;100.00;99008.72;6096232;19;20203;-71
2023/12/19 07:31:22;;;;;;;4.65;3.08;;;;;;;4.51;100.00;99010.16;6095845;19;20013;-71
2023/12/19 07:33:23;;;;;;;5.78;2.95;;;;;;;4.49;100.00;99004.22;6097932;19;20311;-71
2023/12/19 07:35:23;;;;;;;4.70;3.05;;;;;;;4.48;100.00;98994.38;6095738;19;20023;-71
2023/12/19 07:37:23;;;;;;;4.85;3.00;;;;;;;4.52;100.00;98995.34;6096812;19;20102;-71
2023/12/19 07:39:24;;;;;;;5.00;2.67;;;;;;;4.51;100.00;98989.06;6096914;19;20030;-71
2023/12/19 07:41:27;;;;;;;4.18;2.80;;;;;;;4.57;100.00;98986.94;6095628;19;20026;-71
2023/12/19 07:43:29;;;;;;;5.45;3.22;;;;;;;4.57;100.00;98980.66;6096276;19;20010;-71
2023/12/19 07:45:29;;;;;;;6.05;2.90;;;;;;;4.58;100.00;98974.84;6095173;19;20042;-71
2023/12/19 07:47:29;;;;;;;4.07;2.50;;;;;;;4.58;100.00;98974.84;6096544;19;20228;-71
2023/12/19 07:49:30;;;;;;;4.00;2.58;;;;;;;4.60;100.00;98980.81;6096915;19;20007;-71
2023/12/19 07:51:30;;;;;;;6.38;2.92;;;;;;;4.60;100.00;98977.25;6101400;19;20006;-71
2023/12/19 07:53:30;;;;;;;3.75;2.67;;;;;;;4.60;100.00;98982.75;6102850;19;20002;-71
2023/12/19 07:55:31;;;;;;;4.55;2.85;;;;;;;4.59;100.00;98975.66;6103553;19;20684;-71
2023/12/19 07:57:31;;;;;;;4.97;2.90;;;;;;;4.61;100.00;98965.16;6102576;19;20010;-71
2023/12/19 07:59:31;;;;;;;5.95;3.28;;;;;;;4.60;100.00;98955.34;6102388;19;20036;-71
2023/12/19 08:01:32;;;;;;;9.43;4.30;;;;;;;4.65;100.00;98971.63;6102036;19;20014;-71
2023/12/19 08:03:33;;;;;;;17.20;7.97;;;;;;;4.65;100.00;98977.09;6102513;19;20289;-71
2023/12/19 08:05:34;;;;;;;9.55;5.65;;;;;;;4.82;100.00;98981.72;6101305;19;20027;-72
2023/12/19 08:07:34;;;;;;;11.52;5.55;;;;;;;4.85;100.00;98981.88;6102559;19;20015;-72
2023/12/19 08:09:35;;;;;;;5.88;3.88;;;;;;;4.89;100.00;98976.53;6102690;19;20047;-72
2023/12/19 08:11:35;;;;;;;7.28;4.80;;;;;;;5.00;100.00;98972.28;6100961;19;20035;-72
2023/12/19 08:13:35;;;;;;;4.80;3.45;;;;;;;5.03;100.00;98985.34;6103005;19;20354;-72
2023/12/19 08:15:36;;;;;;;6.13;3.83;;;;;;;5.08;100.00;98985.97;6102427;19;20023;-72
2023/12/19 08:17:37;;;;;;;5.22;2.90;;;;;;;5.13;100.00;98981.41;6102632;19;20010;-72
2023/12/19 08:19:38;;;;;;;6.17;4.37;;;;;;;5.14;100.00;98975.63;6102485;19;20014;-71
2023/12/19 08:21:52;;;;;;;8.57;4.10;;;;;;;5.12;100.00;98971.59;6101213;19;20327;-71
2023/12/19 08:23:52;;;;;;;4.63;3.53;;;;;;;5.13;100.00;98963.06;6101838;19;20022;-71
2023/12/19 08:25:52;;;;;;;3.67;2.95;;;;;;;5.14;100.00;98956.44;6101645;19;20018;-71
2023/12/19 08:27:53;;;;;;;4.22;2.83;;;;;;;5.17;100.00;98963.19;6101895;19;20014;-72
2023/12/19 08:29:55;;;;;;;4.93;3.08;;;;;;;5.22;100.00;98957.53;6102245;19;20010;-72
2023/12/19 08:31:55;;;;;;;5.32;3.15;;;;;;;5.29;100.00;98957.78;6101026;19;20749;-72
2023/12/19 08:33:56;;;;;;;5.50;3.10;;;;;;;5.32;100.00;98957.13;6101313;19;20018;-72
2023/12/19 08:35:56;;;;;;;4.85;3.15;;;;;;;5.40;100.00;98966.47;6101397;19;20006;-72
2023/12/19 08:37:56;;;;;;;4.05;2.88;;;;;;;5.55;100.00;98971.38;6101475;19;20407;-72
2023/12/19 08:40:02;;;;;;;4.05;2.75;;;;;;;5.53;100.00;98968.94;6102376;19;20449;-71
2023/12/19 08:42:03;;;;;;;4.95;2.97;;;;;;;5.58;100.00;98962.47;6101409;19;20017;-72
2023/12/19 08:44:04;;;;;;;5.60;3.33;;;;;;;5.59;100.00;98958.56;6101156;19;20019;-72
2023/12/19 08:46:05;;;;;;;3.80;2.70;;;;;;;5.66;100.00;98956.09;6100852;19;20732;-71
2023/12/19 08:48:05;;;;;;;4.65;3.00;;;;;;;5.64;100.00;98952.91;6101848;19;20006;-71
2023/12/19 08:50:08;;;;;;;5.43;3.05;;;;;;;5.62;100.00;98944.97;6099325;19;20003;-72
2023/12/19 08:52:08;;;;;;;7.25;3.30;;;;;;;5.56;100.00;98932.59;6101331;19;20107;-72
2023/12/19 08:54:09;;;;;;;4.55;2.90;;;;;;;5.53;100.00;98933.25;6101494;19;20352;-72
2023/12/19 08:56:10;;;;;;;3.40;2.05;;;;;;;5.56;100.00;98918.88;6101718;19;20003;-72
2023/12/19 08:58:10;;;;;;;3.72;2.40;;;;;;;5.56;100.00;98913.41;6101138;19;20035;-72
2023/12/19 09:00:20;;;;;;;3.60;2.00;;;;;;;5.55;100.00;98911.78;6099891;19;20374;-72
2023/12/19 09:02:20;;;;;;;4.55;2.55;;;;;;;5.56;100.00;98898.88;6101708;19;20010;-72
2023/12/19 09:04:21;;;;;;;4.18;2.58;;;;;;;5.50;100.00;98894.72;6102019;19;20367;-72
2023/12/19 09:06:21;;;;;;;6.38;3.97;;;;;;;5.48;100.00;98903.28;6101231;19;20042;-71
2023/12/19 09:08:23;;;;;;;4.38;3.33;;;;;;;5.46;100.00;98910.22;6100875;19;20006;-71
2023/12/19 09:10:24;;;;;;;8.68;4.63;;;;;;;5.49;100.00;98913.13;6100287;19;20355;-71
2023/12/19 09:12:24;;;;;;;5.38;3.70;;;;;;;5.53;100.00;98918.72;6101370;19;20414;-72
2023/12/19 09:14:25;;;;;;;4.75;3.17;;;;;;;5.49;100.00;98915.88;6101760;19;20014;-72
2023/12/19 09:16:25;;;;;;;6.00;3.80;;;;;;;5.55;100.00;98917.28;6101359;19;20503;-72
2023/12/19 09:18:25;;;;;;;6.38;4.00;;;;;;;5.66;100.00;98920.41;6100817;19;20371;-72
2023/12/19 09:20:26;;;;;;;5.05;3.70;;;;;;;5.79;100.00;98929.50;6098669;19;20021;-72
2023/12/19 09:22:26;;;;;;;8.40;4.20;;;;;;;5.84;100.00;98923.81;6101156;19;20015;-72
2023/12/19 09:24:30;;;;;;;7.70;3.60;;;;;;;5.87;100.00;98917.66;6099796;19;20006;-72
2023/12/19 09:26:32;;;;;;;5.30;3.92;;;;;;;5.87;100.00;98923.16;6100961;19;20408;-72
2023/12/19 09:28:33;;;;;;;6.57;4.32;;;;;;;5.87;100.00;98923.16;6101382;19;20372;-72
2023/12/19 09:30:33;;;;;;;9.38;4.82;;;;;;;5.87;100.00;98912.97;6099688;19;20334;-72